sensor_id;sensor_type;location;lat;lon;timestamp;P1;durP1;ratioP1;P2;durP2;ratioP2
35243;SDS011;37916;52.160;21.066;2024-02-15T00:00:58;12.60;;;5.05;;
35243;SDS011;37916;52.160;21.066;2024-02-15T00:10:59;10.27;;;4.93;;
35243;SDS011;37916;52.160;21.066;2024-02-15T00:21:00;9.82;;;4.97;;
35243;SDS011;37916;52.160;21.066;2024-02-15T00:31:01;11.15;;;5.00;;
35243;SDS011;37916;52.160;21.066;2024-02-15T00:41:02;10.30;;;4.45;;
35243;SDS011;37916;52.160;21.066;2024-02-15T00:51:05;15.77;;;4.80;;
35243;SDS011;37916;52.160;21.066;2024-02-15T01:01:07;12.57;;;4.85;;
35243;SDS011;37916;52.160;21.066;2024-02-15T01:11:08;11.50;;;6.05;;
35243;SDS011;37916;52.160;21.066;2024-02-15T01:21:09;12.00;;;5.80;;
35243;SDS011;37916;52.160;21.066;2024-02-15T01:31:11;10.38;;;4.55;;
35243;SDS011;37916;52.160;21.066;2024-02-15T01:41:12;11.57;;;5.30;;
35243;SDS011;37916;52.160;21.066;2024-02-15T01:51:14;13.70;;;6.72;;
35243;SDS011;37916;52.160;21.066;2024-02-15T02:01:16;11.18;;;4.88;;
35243;SDS011;37916;52.160;21.066;2024-02-15T02:11:17;12.07;;;5.50;;
35243;SDS011;37916;52.160;21.066;2024-02-15T02:21:18;11.45;;;5.18;;
35243;SDS011;37916;52.160;21.066;2024-02-15T02:31:20;13.70;;;5.43;;
35243;SDS011;37916;52.160;21.066;2024-02-15T02:41:22;11.85;;;5.35;;
35243;SDS011;37916;52.160;21.066;2024-02-15T02:51:23;12.10;;;5.80;;
35243;SDS011;37916;52.160;21.066;2024-02-15T03:01:24;15.07;;;6.10;;
35243;SDS011;37916;52.160;21.066;2024-02-15T03:11:26;11.20;;;5.10;;
35243;SDS011;37916;52.160;21.066;2024-02-15T03:21:28;12.20;;;6.28;;
35243;SDS011;37916;52.160;21.066;2024-02-15T03:31:29;12.82;;;6.22;;
35243;SDS011;37916;52.160;21.066;2024-02-15T03:41:31;13.27;;;5.40;;
35243;SDS011;37916;52.160;21.066;2024-02-15T03:51:32;12.02;;;5.82;;
35243;SDS011;37916;52.160;21.066;2024-02-15T04:01:33;10.80;;;6.00;;
35243;SDS011;37916;52.160;21.066;2024-02-15T04:11:35;12.20;;;6.55;;
35243;SDS011;37916;52.160;21.066;2024-02-15T04:21:37;12.07;;;6.50;;
35243;SDS011;37916;52.160;21.066;2024-02-15T04:31:40;10.63;;;5.00;;
35243;SDS011;37916;52.160;21.066;2024-02-15T04:41:42;10.13;;;5.53;;
35243;SDS011;37916;52.160;21.066;2024-02-15T04:51:43;14.25;;;6.10;;
35243;SDS011;37916;52.160;21.066;2024-02-15T05:01:44;15.18;;;6.00;;
35243;SDS011;37916;52.160;21.066;2024-02-15T05:11:46;12.75;;;5.50;;
35243;SDS011;37916;52.160;21.066;2024-02-15T05:21:48;13.38;;;5.60;;
35243;SDS011;37916;52.160;21.066;2024-02-15T05:31:49;12.07;;;5.45;;
35243;SDS011;37916;52.160;21.066;2024-02-15T05:41:54;12.63;;;5.72;;
35243;SDS011;37916;52.160;21.066;2024-02-15T05:51:57;12.30;;;5.97;;
35243;SDS011;37916;52.160;21.066;2024-02-15T06:01:59;15.82;;;6.68;;
35243;SDS011;37916;52.160;21.066;2024-02-15T06:12:03;15.30;;;7.63;;
35243;SDS011;37916;52.160;21.066;2024-02-15T06:22:05;14.65;;;8.18;;
35243;SDS011;37916;52.160;21.066;2024-02-15T06:32:06;15.00;;;8.82;;
35243;SDS011;37916;52.160;21.066;2024-02-15T06:42:25;18.48;;;10.00;;
35243;SDS011;37916;52.160;21.066;2024-02-15T06:52:26;18.02;;;10.18;;
35243;SDS011;37916;52.160;21.066;2024-02-15T07:02:28;16.73;;;9.95;;
35243;SDS011;37916;52.160;21.066;2024-02-15T07:12:29;17.02;;;10.27;;
35243;SDS011;37916;52.160;21.066;2024-02-15T07:22:34;21.67;;;11.50;;
35243;SDS011;37916;52.160;21.066;2024-02-15T07:32:35;19.63;;;11.13;;
35243;SDS011;37916;52.160;21.066;2024-02-15T07:42:37;20.58;;;12.35;;
35243;SDS011;37916;52.160;21.066;2024-02-15T07:52:38;26.10;;;13.60;;
35243;SDS011;37916;52.160;21.066;2024-02-15T08:02:39;20.83;;;13.35;;
35243;SDS011;37916;52.160;21.066;2024-02-15T08:12:43;23.90;;;15.07;;
35243;SDS011;37916;52.160;21.066;2024-02-15T08:22:44;28.88;;;15.50;;
35243;SDS011;37916;52.160;21.066;2024-02-15T08:32:45;29.60;;;16.10;;
35243;SDS011;37916;52.160;21.066;2024-02-15T08:42:47;31.27;;;16.10;;
35243;SDS011;37916;52.160;21.066;2024-02-15T08:52:48;30.42;;;16.88;;
35243;SDS011;37916;52.160;21.066;2024-02-15T09:02:50;30.77;;;17.80;;
35243;SDS011;37916;52.160;21.066;2024-02-15T09:12:51;28.70;;;17.90;;
35243;SDS011;37916;52.160;21.066;2024-02-15T09:22:52;34.05;;;16.95;;
35243;SDS011;37916;52.160;21.066;2024-02-15T09:42:57;28.70;;;18.63;;
35243;SDS011;37916;52.160;21.066;2024-02-15T09:53:00;31.90;;;19.13;;
35243;SDS011;37916;52.160;21.066;2024-02-15T10:03:06;34.78;;;19.58;;
35243;SDS011;37916;52.160;21.066;2024-02-15T10:13:12;32.27;;;19.47;;
35243;SDS011;37916;52.160;21.066;2024-02-15T10:23:15;34.25;;;20.38;;
35243;SDS011;37916;52.160;21.066;2024-02-15T10:33:19;40.08;;;21.20;;
35243;SDS011;37916;52.160;21.066;2024-02-15T10:43:20;38.67;;;22.83;;
35243;SDS011;37916;52.160;21.066;2024-02-15T10:53:28;35.42;;;21.23;;
35243;SDS011;37916;52.160;21.066;2024-02-15T11:03:50;41.28;;;21.85;;
35243;SDS011;37916;52.160;21.066;2024-02-15T11:24:25;31.63;;;21.63;;
35243;SDS011;37916;52.160;21.066;2024-02-15T11:34:43;41.00;;;23.67;;
35243;SDS011;37916;52.160;21.066;2024-02-15T11:44:46;37.33;;;22.60;;
35243;SDS011;37916;52.160;21.066;2024-02-15T11:54:47;34.58;;;21.17;;
35243;SDS011;37916;52.160;21.066;2024-02-15T12:04:48;30.83;;;20.77;;
35243;SDS011;37916;52.160;21.066;2024-02-15T12:15:07;36.22;;;21.23;;
35243;SDS011;37916;52.160;21.066;2024-02-15T12:25:27;35.58;;;21.05;;
35243;SDS011;37916;52.160;21.066;2024-02-15T12:35:28;33.30;;;19.88;;
35243;SDS011;37916;52.160;21.066;2024-02-15T12:45:29;32.00;;;18.65;;
35243;SDS011;37916;52.160;21.066;2024-02-15T12:55:34;27.35;;;18.45;;
35243;SDS011;37916;52.160;21.066;2024-02-15T13:05:36;27.92;;;18.02;;
35243;SDS011;37916;52.160;21.066;2024-02-15T13:15:40;26.77;;;16.13;;
35243;SDS011;37916;52.160;21.066;2024-02-15T13:25:42;30.48;;;17.02;;
35243;SDS011;37916;52.160;21.066;2024-02-15T13:35:43;31.80;;;17.30;;
35243;SDS011;37916;52.160;21.066;2024-02-15T13:45:44;27.45;;;16.42;;
35243;SDS011;37916;52.160;21.066;2024-02-15T13:55:45;27.52;;;15.32;;
35243;SDS011;37916;52.160;21.066;2024-02-15T14:05:47;26.65;;;15.50;;
35243;SDS011;37916;52.160;21.066;2024-02-15T14:15:49;23.50;;;15.02;;
35243;SDS011;37916;52.160;21.066;2024-02-15T14:25:51;23.85;;;14.68;;
35243;SDS011;37916;52.160;21.066;2024-02-15T14:35:53;25.98;;;15.23;;
35243;SDS011;37916;52.160;21.066;2024-02-15T14:45:55;23.75;;;15.60;;
35243;SDS011;37916;52.160;21.066;2024-02-15T14:55:57;25.70;;;15.32;;
35243;SDS011;37916;52.160;21.066;2024-02-15T15:06:04;26.70;;;15.95;;
35243;SDS011;37916;52.160;21.066;2024-02-15T15:16:26;28.92;;;15.52;;
35243;SDS011;37916;52.160;21.066;2024-02-15T15:26:28;27.55;;;15.75;;
35243;SDS011;37916;52.160;21.066;2024-02-15T15:36:31;29.87;;;15.83;;
35243;SDS011;37916;52.160;21.066;2024-02-15T15:46:33;25.45;;;15.05;;
35243;SDS011;37916;52.160;21.066;2024-02-15T15:56:41;26.65;;;16.80;;
35243;SDS011;37916;52.160;21.066;2024-02-15T16:17:24;24.35;;;14.23;;
35243;SDS011;37916;52.160;21.066;2024-02-15T16:27:25;24.83;;;13.75;;
35243;SDS011;37916;52.160;21.066;2024-02-15T16:37:26;26.05;;;14.43;;
35243;SDS011;37916;52.160;21.066;2024-02-15T16:47:27;22.40;;;13.40;;
35243;SDS011;37916;52.160;21.066;2024-02-15T16:57:28;25.75;;;14.45;;
35243;SDS011;37916;52.160;21.066;2024-02-15T17:07:29;24.10;;;14.30;;
35243;SDS011;37916;52.160;21.066;2024-02-15T17:17:30;27.88;;;14.75;;
35243;SDS011;37916;52.160;21.066;2024-02-15T17:27:32;31.33;;;14.65;;
35243;SDS011;37916;52.160;21.066;2024-02-15T17:37:37;26.87;;;14.73;;
35243;SDS011;37916;52.160;21.066;2024-02-15T17:47:41;24.65;;;15.07;;
35243;SDS011;37916;52.160;21.066;2024-02-15T17:57:46;26.85;;;15.93;;
35243;SDS011;37916;52.160;21.066;2024-02-15T18:07:47;29.77;;;14.93;;
35243;SDS011;37916;52.160;21.066;2024-02-15T18:17:49;26.88;;;14.65;;
35243;SDS011;37916;52.160;21.066;2024-02-15T18:27:50;24.58;;;15.43;;
35243;SDS011;37916;52.160;21.066;2024-02-15T18:37:51;23.25;;;15.60;;
35243;SDS011;37916;52.160;21.066;2024-02-15T18:47:55;27.37;;;15.50;;
35243;SDS011;37916;52.160;21.066;2024-02-15T18:57:57;27.25;;;14.07;;
35243;SDS011;37916;52.160;21.066;2024-02-15T19:07:58;26.88;;;15.43;;
35243;SDS011;37916;52.160;21.066;2024-02-15T19:17:59;26.05;;;13.75;;
35243;SDS011;37916;52.160;21.066;2024-02-15T19:28:00;21.55;;;13.65;;
35243;SDS011;37916;52.160;21.066;2024-02-15T19:38:05;25.70;;;15.13;;
35243;SDS011;37916;52.160;21.066;2024-02-15T19:48:06;24.23;;;15.10;;
35243;SDS011;37916;52.160;21.066;2024-02-15T19:58:09;29.05;;;15.00;;
35243;SDS011;37916;52.160;21.066;2024-02-15T20:08:10;26.45;;;15.45;;
35243;SDS011;37916;52.160;21.066;2024-02-15T20:18:11;25.95;;;14.73;;
35243;SDS011;37916;52.160;21.066;2024-02-15T20:28:12;29.52;;;16.90;;
35243;SDS011;37916;52.160;21.066;2024-02-15T20:38:22;29.50;;;15.48;;
35243;SDS011;37916;52.160;21.066;2024-02-15T20:48:28;27.80;;;15.80;;
35243;SDS011;37916;52.160;21.066;2024-02-15T20:58:29;28.83;;;17.33;;
35243;SDS011;37916;52.160;21.066;2024-02-15T21:08:30;29.90;;;17.67;;
35243;SDS011;37916;52.160;21.066;2024-02-15T21:18:32;25.58;;;15.02;;
35243;SDS011;37916;52.160;21.066;2024-02-15T21:28:34;27.02;;;15.38;;
35243;SDS011;37916;52.160;21.066;2024-02-15T21:38:46;28.13;;;16.90;;
35243;SDS011;37916;52.160;21.066;2024-02-15T21:48:47;28.80;;;16.15;;
35243;SDS011;37916;52.160;21.066;2024-02-15T21:58:50;27.87;;;15.50;;
35243;SDS011;37916;52.160;21.066;2024-02-15T22:08:51;26.50;;;14.60;;
35243;SDS011;37916;52.160;21.066;2024-02-15T22:18:52;24.38;;;14.90;;
35243;SDS011;37916;52.160;21.066;2024-02-15T22:28:53;28.95;;;15.00;;
35243;SDS011;37916;52.160;21.066;2024-02-15T22:38:54;25.38;;;14.30;;
35243;SDS011;37916;52.160;21.066;2024-02-15T22:48:55;32.53;;;15.45;;
35243;SDS011;37916;52.160;21.066;2024-02-15T22:58:56;27.52;;;15.00;;
35243;SDS011;37916;52.160;21.066;2024-02-15T23:08:57;27.63;;;14.57;;
35243;SDS011;37916;52.160;21.066;2024-02-15T23:18:59;23.48;;;14.57;;
35243;SDS011;37916;52.160;21.066;2024-02-15T23:29:00;24.80;;;12.90;;
35243;SDS011;37916;52.160;21.066;2024-02-15T23:39:01;23.45;;;13.38;;
35243;SDS011;37916;52.160;21.066;2024-02-15T23:49:20;23.92;;;12.35;;
35243;SDS011;37916;52.160;21.066;2024-02-15T23:59:22;22.35;;;12.43;;
